sensor_id;sensor_type;location;lat;lon;timestamp;pressure;altitude;pressure_sealevel;temperature;humidity
26719;BME280;14326;50.794;6.060;2023-04-21T00:01:53;99361.84;;;6.71;100.00
26719;BME280;14326;50.794;6.060;2023-04-21T00:04:36;99363.56;;;6.69;100.00
26719;BME280;14326;50.794;6.060;2023-04-21T00:07:36;99363.38;;;6.61;100.00
26719;BME280;14326;50.794;6.060;2023-04-21T00:13:12;99355.38;;;6.56;100.00
26719;BME280;14326;50.794;6.060;2023-04-21T00:18:30;99368.72;;;6.63;100.00
26719;BME280;14326;50.794;6.060;2023-04-21T00:21:24;99367.84;;;6.64;100.00
26719;BME280;14326;50.794;6.060;2023-04-21T00:24:09;99374.03;;;6.66;100.00
26719;BME280;14326;50.794;6.060;2023-04-21T00:26:47;99374.00;;;6.63;100.00
26719;BME280;14326;50.794;6.060;2023-04-21T00:29:30;99367.09;;;6.69;100.00
26719;BME280;14326;50.794;6.060;2023-04-21T00:35:20;99364.44;;;6.69;100.00
26719;BME280;14326;50.794;6.060;2023-04-21T00:38:18;99363.56;;;6.69;100.00
26719;BME280;14326;50.794;6.060;2023-04-21T00:41:19;99358.22;;;6.67;100.00
26719;BME280;14326;50.794;6.060;2023-04-21T00:44:06;99365.25;;;6.67;100.00
26719;BME280;14326;50.794;6.060;2023-04-21T00:46:45;99364.25;;;6.58;100.00
26719;BME280;14326;50.794;6.060;2023-04-21T00:49:32;99349.38;;;6.64;100.00
26719;BME280;14326;50.794;6.060;2023-04-21T00:55:12;99361.56;;;6.57;100.00
26719;BME280;14326;50.794;6.060;2023-04-21T00:57:51;99356.28;;;6.57;100.00
26719;BME280;14326;50.794;6.060;2023-04-21T01:00:18;99350.97;;;6.57;100.00
26719;BME280;14326;50.794;6.060;2023-04-21T01:02:45;99345.75;;;6.60;100.00
26719;BME280;14326;50.794;6.060;2023-04-21T01:05:12;99351.94;;;6.61;100.00
26719;BME280;14326;50.794;6.060;2023-04-21T01:07:45;99349.25;;;6.57;100.00
26719;BME280;14326;50.794;6.060;2023-04-21T01:10:11;99350.13;;;6.58;100.00
26719;BME280;14326;50.794;6.060;2023-04-21T01:12:42;99351.88;;;6.57;100.00
26719;BME280;14326;50.794;6.060;2023-04-21T01:15:10;99355.41;;;6.58;100.00
26719;BME280;14326;50.794;6.060;2023-04-21T01:17:37;99362.50;;;6.61;100.00
26719;BME280;14326;50.794;6.060;2023-04-21T01:20:07;99358.94;;;6.58;100.00
26719;BME280;14326;50.794;6.060;2023-04-21T01:22:46;99359.00;;;6.62;100.00
26719;BME280;14326;50.794;6.060;2023-04-21T01:25:21;99358.03;;;6.56;100.00
26719;BME280;14326;50.794;6.060;2023-04-21T01:28:03;99352.69;;;6.55;100.00
26719;BME280;14326;50.794;6.060;2023-04-21T01:30:29;99351.88;;;6.57;100.00
26719;BME280;14326;50.794;6.060;2023-04-21T01:32:56;99356.22;;;6.55;100.00
26719;BME280;14326;50.794;6.060;2023-04-21T01:35:36;99352.72;;;6.56;100.00
26719;BME280;14326;50.794;6.060;2023-04-21T01:38:19;99357.97;;;6.53;100.00
26719;BME280;14326;50.794;6.060;2023-04-21T01:40:59;99348.25;;;6.54;100.00
26719;BME280;14326;50.794;6.060;2023-04-21T01:43:36;99343.88;;;6.54;100.00
26719;BME280;14326;50.794;6.060;2023-04-21T01:46:22;99348.25;;;6.54;100.00
26719;BME280;14326;50.794;6.060;2023-04-21T01:48:49;99350.09;;;6.56;100.00
26719;BME280;14326;50.794;6.060;2023-04-21T01:51:38;99357.13;;;6.56;100.00
26719;BME280;14326;50.794;6.060;2023-04-21T01:54:33;99358.94;;;6.58;100.00
26719;BME280;14326;50.794;6.060;2023-04-21T01:57:09;99362.53;;;6.62;100.00
26719;BME280;14326;50.794;6.060;2023-04-21T01:59:36;99358.16;;;6.63;100.00
26719;BME280;14326;50.794;6.060;2023-04-21T02:02:03;99358.09;;;6.61;100.00
26719;BME280;14326;50.794;6.060;2023-04-21T02:04:32;99353.72;;;6.62;100.00
26719;BME280;14326;50.794;6.060;2023-04-21T02:07:15;99353.72;;;6.62;100.00
26719;BME280;14326;50.794;6.060;2023-04-21T02:10:21;99348.50;;;6.65;100.00
26719;BME280;14326;50.794;6.060;2023-04-21T02:12:58;99343.22;;;6.65;100.00
26719;BME280;14326;50.794;6.060;2023-04-21T02:15:48;99340.59;;;6.65;100.00
26719;BME280;14326;50.794;6.060;2023-04-21T02:18:35;99340.47;;;6.60;100.00
26719;BME280;14326;50.794;6.060;2023-04-21T02:21:31;99343.03;;;6.55;100.00
26719;BME280;14326;50.794;6.060;2023-04-21T02:24:27;99335.81;;;6.47;100.00
26719;BME280;14326;50.794;6.060;2023-04-21T02:27:15;99334.84;;;6.42;100.00
26719;BME280;14326;50.794;6.060;2023-04-21T02:30:08;99332.97;;;6.38;100.00
26719;BME280;14326;50.794;6.060;2023-04-21T02:32:51;99334.63;;;6.33;100.00
26719;BME280;14326;50.794;6.060;2023-04-21T02:35:36;99326.53;;;6.25;100.00
26719;BME280;14326;50.794;6.060;2023-04-21T02:38:27;99329.06;;;6.21;100.00
26719;BME280;14326;50.794;6.060;2023-04-21T02:40:55;99319.34;;;6.18;100.00
26719;BME280;14326;50.794;6.060;2023-04-21T02:43:23;99323.66;;;6.14;100.00
26719;BME280;14326;50.794;6.060;2023-04-21T02:46:14;99327.22;;;6.16;100.00
26719;BME280;14326;50.794;6.060;2023-04-21T02:48:44;99333.38;;;6.15;100.00
26719;BME280;14326;50.794;6.060;2023-04-21T02:51:11;99333.41;;;6.17;100.00
26719;BME280;14326;50.794;6.060;2023-04-21T02:53:38;99328.19;;;6.20;100.00
26719;BME280;14326;50.794;6.060;2023-04-21T02:56:06;99328.13;;;6.17;100.00
26719;BME280;14326;50.794;6.060;2023-04-21T02:58:40;99323.63;;;6.13;100.00
26719;BME280;14326;50.794;6.060;2023-04-21T03:01:23;99339.41;;;6.10;100.00
26719;BME280;14326;50.794;6.060;2023-04-21T03:03:55;99337.56;;;6.07;100.00
26719;BME280;14326;50.794;6.060;2023-04-21T03:06:36;99337.56;;;6.07;100.00
26719;BME280;14326;50.794;6.060;2023-04-21T03:09:11;99343.66;;;6.03;100.00
26719;BME280;14326;50.794;6.060;2023-04-21T03:11:47;99345.41;;;6.03;100.00
26719;BME280;14326;50.794;6.060;2023-04-21T03:14:24;99341.81;;;6.01;100.00
26719;BME280;14326;50.794;6.060;2023-04-21T03:17:00;99336.53;;;6.01;100.00
26719;BME280;14326;50.794;6.060;2023-04-21T03:19:45;99326.88;;;6.00;100.00
26719;BME280;14326;50.794;6.060;2023-04-21T03:22:37;99325.94;;;5.98;100.00
26719;BME280;14326;50.794;6.060;2023-04-21T03:25:14;99314.44;;;5.96;100.00
26719;BME280;14326;50.794;6.060;2023-04-21T03:28:08;99319.66;;;5.93;100.00
26719;BME280;14326;50.794;6.060;2023-04-21T03:30:54;99306.38;;;5.90;100.00
26719;BME280;14326;50.794;6.060;2023-04-21T03:33:48;99307.22;;;5.87;100.00
26719;BME280;14326;50.794;6.060;2023-04-21T03:36:49;99305.34;;;5.85;100.00
26719;BME280;14326;50.794;6.060;2023-04-21T03:39:26;99310.53;;;5.80;100.00
26719;BME280;14326;50.794;6.060;2023-04-21T03:42:02;99312.25;;;5.78;100.00
26719;BME280;14326;50.794;6.060;2023-04-21T03:44:40;99306.81;;;5.72;100.00
26719;BME280;14326;50.794;6.060;2023-04-21T03:47:38;99320.91;;;5.72;100.00
26719;BME280;14326;50.794;6.060;2023-04-21T03:50:43;99331.31;;;5.65;100.00
26719;BME280;14326;50.794;6.060;2023-04-21T03:56:33;99318.72;;;5.53;100.00
26719;BME280;14326;50.794;6.060;2023-04-21T03:59:34;99330.09;;;5.52;100.00
26719;BME280;14326;50.794;6.060;2023-04-21T04:02:08;99325.59;;;5.48;100.00
26719;BME280;14326;50.794;6.060;2023-04-21T04:04:43;99322.94;;;5.48;100.00
26719;BME280;14326;50.794;6.060;2023-04-21T04:07:16;99316.81;;;5.48;100.00
26719;BME280;14326;50.794;6.060;2023-04-21T04:09:51;99330.91;;;5.50;100.00
26719;BME280;14326;50.794;6.060;2023-04-21T04:12:22;99327.44;;;5.51;100.00
26719;BME280;14326;50.794;6.060;2023-04-21T04:15:09;99321.19;;;5.47;100.00
26719;BME280;14326;50.794;6.060;2023-04-21T04:17:40;99317.69;;;5.48;100.00
26719;BME280;14326;50.794;6.060;2023-04-21T04:20:28;99321.19;;;5.47;100.00
26719;BME280;14326;50.794;6.060;2023-04-21T04:22:55;99319.38;;;5.45;100.00
26719;BME280;14326;50.794;6.060;2023-04-21T04:25:21;99321.94;;;5.43;100.00
26719;BME280;14326;50.794;6.060;2023-04-21T04:28:07;99315.78;;;5.43;100.00
26719;BME280;14326;50.794;6.060;2023-04-21T04:31:02;99319.31;;;5.42;100.00
26719;BME280;14326;50.794;6.060;2023-04-21T04:33:39;99321.03;;;5.41;100.00
26719;BME280;14326;50.794;6.060;2023-04-21T04:36:10;99323.63;;;5.40;100.00
26719;BME280;14326;50.794;6.060;2023-04-21T04:38:37;99320.16;;;5.41;100.00
26719;BME280;14326;50.794;6.060;2023-04-21T04:41:14;99319.25;;;5.40;100.00
26719;BME280;14326;50.794;6.060;2023-04-21T04:43:41;99324.53;;;5.40;100.00
26719;BME280;14326;50.794;6.060;2023-04-21T04:46:13;99325.34;;;5.38;100.00
26719;BME280;14326;50.794;6.060;2023-04-21T04:48:55;99321.00;;;5.40;100.00
26719;BME280;14326;50.794;6.060;2023-04-21T04:52:00;99319.16;;;5.37;100.00
26719;BME280;14326;50.794;6.060;2023-04-21T04:54:26;99320.91;;;5.35;100.00
26719;BME280;14326;50.794;6.060;2023-04-21T04:56:54;99325.22;;;5.33;100.00
26719;BME280;14326;50.794;6.060;2023-04-21T04:59:59;99325.22;;;5.33;100.00
26719;BME280;14326;50.794;6.060;2023-04-21T05:06:03;99321.78;;;5.35;100.00
26719;BME280;14326;50.794;6.060;2023-04-21T05:12:10;99324.28;;;5.31;100.00
26719;BME280;14326;50.794;6.060;2023-04-21T05:14:37;99333.09;;;5.31;100.00
26719;BME280;14326;50.794;6.060;2023-04-21T05:17:34;99321.66;;;5.31;100.00
26719;BME280;14326;50.794;6.060;2023-04-21T05:20:18;99329.72;;;5.37;100.00
26719;BME280;14326;50.794;6.060;2023-04-21T05:22:48;99327.22;;;5.43;100.00
26719;BME280;14326;50.794;6.060;2023-04-21T05:31:40;99313.53;;;5.94;100.00
26719;BME280;14326;50.794;6.060;2023-04-21T05:34:08;99313.31;;;6.24;100.00
26719;BME280;14326;50.794;6.060;2023-04-21T05:36:35;99317.31;;;6.48;100.00
26719;BME280;14326;50.794;6.060;2023-04-21T05:39:12;99305.41;;;6.69;100.00
26719;BME280;14326;50.794;6.060;2023-04-21T05:41:50;99309.25;;;6.86;100.00
26719;BME280;14326;50.794;6.060;2023-04-21T05:47:26;99306.31;;;7.17;100.00
26719;BME280;14326;50.794;6.060;2023-04-21T05:50:01;99302.75;;;7.15;100.00
26719;BME280;14326;50.794;6.060;2023-04-21T05:53:00;99296.16;;;7.42;100.00
26719;BME280;14326;50.794;6.060;2023-04-21T05:56:05;99297.41;;;7.65;100.00
26719;BME280;14326;50.794;6.060;2023-04-21T05:59:09;99297.28;;;8.19;100.00
26719;BME280;14326;50.794;6.060;2023-04-21T06:01:52;99293.78;;;8.20;100.00
26719;BME280;14326;50.794;6.060;2023-04-21T06:05:03;99297.28;;;8.19;100.00
26719;BME280;14326;50.794;6.060;2023-04-21T06:08:12;99295.38;;;8.06;100.00
26719;BME280;14326;50.794;6.060;2023-04-21T06:11:04;99297.38;;;8.23;100.00
26719;BME280;14326;50.794;6.060;2023-04-21T06:13:38;99306.53;;;8.48;100.00
26719;BME280;14326;50.794;6.060;2023-04-21T06:16:17;99300.44;;;8.54;100.00
26719;BME280;14326;50.794;6.060;2023-04-21T06:24:54;99299.56;;;8.56;100.00
26719;BME280;14326;50.794;6.060;2023-04-21T06:27:49;99295.00;;;9.23;100.00
26719;BME280;14326;50.794;6.060;2023-04-21T06:30:41;99294.41;;;8.67;99.53
26719;BME280;14326;50.794;6.060;2023-04-21T06:36:25;99293.53;;;8.68;100.00
26719;BME280;14326;50.794;6.060;2023-04-21T06:39:02;99294.31;;;8.58;100.00
26719;BME280;14326;50.794;6.060;2023-04-21T06:41:31;99284.38;;;8.40;100.00
26719;BME280;14326;50.794;6.060;2023-04-21T06:43:57;99292.19;;;8.31;100.00
26719;BME280;14326;50.794;6.060;2023-04-21T06:46:24;99290.50;;;8.38;100.00
26719;BME280;14326;50.794;6.060;2023-04-21T06:48:58;99288.81;;;8.44;100.00
26719;BME280;14326;50.794;6.060;2023-04-21T06:51:29;99284.66;;;8.65;100.00
26719;BME280;14326;50.794;6.060;2023-04-21T06:54:27;99279.56;;;8.84;100.00
26719;BME280;14326;50.794;6.060;2023-04-21T06:57:09;99264.00;;;9.21;100.00
26719;BME280;14326;50.794;6.060;2023-04-21T06:59:46;99278.25;;;9.32;97.36
26719;BME280;14326;50.794;6.060;2023-04-21T07:02:20;99270.66;;;9.77;99.37
26719;BME280;14326;50.794;6.060;2023-04-21T07:04:50;99276.16;;;10.12;96.07
26719;BME280;14326;50.794;6.060;2023-04-21T07:07:21;99271.75;;;10.13;90.74
26719;BME280;14326;50.794;6.060;2023-04-21T07:09:48;99282.31;;;10.05;89.64
26719;BME280;14326;50.794;6.060;2023-04-21T07:12:20;99282.34;;;10.10;90.72
26719;BME280;14326;50.794;6.060;2023-04-21T07:14:59;99277.25;;;10.49;91.85
26719;BME280;14326;50.794;6.060;2023-04-21T07:20:26;99272.84;;;10.53;86.81
26719;BME280;14326;50.794;6.060;2023-04-21T07:23:00;99273.72;;;10.56;88.47
26719;BME280;14326;50.794;6.060;2023-04-21T07:25:56;99260.53;;;10.93;90.21
26719;BME280;14326;50.794;6.060;2023-04-21T07:28:37;99270.31;;;11.00;89.13
26719;BME280;14326;50.794;6.060;2023-04-21T07:31:26;99264.97;;;11.03;86.94
26719;BME280;14326;50.794;6.060;2023-04-21T07:34:20;99264.06;;;10.83;89.34
26719;BME280;14326;50.794;6.060;2023-04-21T07:37:08;99268.50;;;10.84;90.29
26719;BME280;14326;50.794;6.060;2023-04-21T07:39:57;99258.75;;;10.98;90.96
26719;BME280;14326;50.794;6.060;2023-04-21T07:42:33;99267.63;;;10.94;88.94
26719;BME280;14326;50.794;6.060;2023-04-21T07:45:20;99271.09;;;10.62;90.79
26719;BME280;14326;50.794;6.060;2023-04-21T07:48:10;99279.13;;;10.72;90.89
26719;BME280;14326;50.794;6.060;2023-04-21T07:50:49;99284.47;;;10.88;92.14
26719;BME280;14326;50.794;6.060;2023-04-21T07:53:16;99279.16;;;10.87;90.34
26719;BME280;14326;50.794;6.060;2023-04-21T07:55:47;99294.13;;;10.56;91.30
26719;BME280;14326;50.794;6.060;2023-04-21T07:58:39;99292.38;;;10.67;93.04
26719;BME280;14326;50.794;6.060;2023-04-21T08:10:47;99284.53;;;11.26;86.70
26719;BME280;14326;50.794;6.060;2023-04-21T08:13:17;99288.03;;;10.92;85.12
26719;BME280;14326;50.794;6.060;2023-04-21T08:15:53;99280.97;;;11.27;86.47
26719;BME280;14326;50.794;6.060;2023-04-21T08:18:34;99283.66;;;11.52;84.06
26719;BME280;14326;50.794;6.060;2023-04-21T08:21:14;99274.78;;;11.78;82.94
26719;BME280;14326;50.794;6.060;2023-04-21T08:23:45;99270.31;;;11.91;80.49
26719;BME280;14326;50.794;6.060;2023-04-21T08:26:12;99275.63;;;12.03;78.47
26719;BME280;14326;50.794;6.060;2023-04-21T08:28:40;99271.16;;;12.17;77.76
26719;BME280;14326;50.794;6.060;2023-04-21T08:31:18;99269.47;;;11.81;76.11
26719;BME280;14326;50.794;6.060;2023-04-21T08:33:55;99272.09;;;11.95;79.11
26719;BME280;14326;50.794;6.060;2023-04-21T08:36:34;99264.94;;;12.08;77.81
26719;BME280;14326;50.794;6.060;2023-04-21T08:39:42;99261.44;;;11.95;75.70
26719;BME280;14326;50.794;6.060;2023-04-21T08:42:26;99267.69;;;11.88;76.02
26719;BME280;14326;50.794;6.060;2023-04-21T08:45:04;99272.13;;;11.89;76.13
26719;BME280;14326;50.794;6.060;2023-04-21T08:50:44;99264.94;;;12.17;76.31
26719;BME280;14326;50.794;6.060;2023-04-21T08:53:15;99251.53;;;12.43;75.96
26719;BME280;14326;50.794;6.060;2023-04-21T08:55:42;99251.38;;;12.71;74.42
26719;BME280;14326;50.794;6.060;2023-04-21T08:58:14;99248.50;;;13.06;74.13
26719;BME280;14326;50.794;6.060;2023-04-21T09:00:40;99250.50;;;12.62;73.75
26719;BME280;14326;50.794;6.060;2023-04-21T09:03:07;99244.25;;;12.72;74.75
26719;BME280;14326;50.794;6.060;2023-04-21T09:05:35;99251.34;;;12.73;74.42
26719;BME280;14326;50.794;6.060;2023-04-21T09:08:10;99245.03;;;12.88;74.67
26719;BME280;14326;50.794;6.060;2023-04-21T09:10:50;99250.50;;;12.65;73.92
26719;BME280;14326;50.794;6.060;2023-04-21T09:13:18;99251.38;;;12.70;73.45
26719;BME280;14326;50.794;6.060;2023-04-21T09:15:46;99252.13;;;12.93;74.07
26719;BME280;14326;50.794;6.060;2023-04-21T09:18:15;99257.44;;;12.98;73.58
26719;BME280;14326;50.794;6.060;2023-04-21T09:20:43;99256.41;;;13.25;72.22
26719;BME280;14326;50.794;6.060;2023-04-21T09:23:11;99242.88;;;13.46;69.42
26719;BME280;14326;50.794;6.060;2023-04-21T09:25:39;99238.41;;;13.48;70.99
26719;BME280;14326;50.794;6.060;2023-04-21T09:28:08;99240.06;;;13.60;70.68
26719;BME280;14326;50.794;6.060;2023-04-21T09:30:36;99238.47;;;13.39;71.18
26719;BME280;14326;50.794;6.060;2023-04-21T09:33:04;99238.19;;;13.69;73.21
26719;BME280;14326;50.794;6.060;2023-04-21T09:35:32;99248.00;;;13.67;70.65
26719;BME280;14326;50.794;6.060;2023-04-21T09:38:00;99247.09;;;13.70;69.75
26719;BME280;14326;50.794;6.060;2023-04-21T09:40:28;99243.53;;;13.71;69.11
26719;BME280;14326;50.794;6.060;2023-04-21T09:42:58;99245.19;;;13.82;69.87
26719;BME280;14326;50.794;6.060;2023-04-21T09:45:29;99237.94;;;13.93;70.68
26719;BME280;14326;50.794;6.060;2023-04-21T09:47:58;99241.13;;;14.27;71.13
26719;BME280;14326;50.794;6.060;2023-04-21T09:50:28;99229.53;;;14.27;68.70
26719;BME280;14326;50.794;6.060;2023-04-21T09:52:56;99238.50;;;14.23;69.99
26719;BME280;14326;50.794;6.060;2023-04-21T09:55:25;99234.28;;;14.02;68.94
26719;BME280;14326;50.794;6.060;2023-04-21T09:57:57;99236.16;;;13.96;70.44
26719;BME280;14326;50.794;6.060;2023-04-21T10:00:34;99238.78;;;13.99;70.66
26719;BME280;14326;50.794;6.060;2023-04-21T10:03:04;99228.66;;;14.26;68.26
26719;BME280;14326;50.794;6.060;2023-04-21T10:05:34;99233.28;;;14.12;67.03
26719;BME280;14326;50.794;6.060;2023-04-21T10:08:07;99232.22;;;14.27;68.30
26719;BME280;14326;50.794;6.060;2023-04-21T10:10:52;99233.19;;;14.20;65.58
26719;BME280;14326;50.794;6.060;2023-04-21T10:13:35;99235.00;;;14.19;66.86
26719;BME280;14326;50.794;6.060;2023-04-21T10:16:16;99222.38;;;14.29;66.58
26719;BME280;14326;50.794;6.060;2023-04-21T10:18:44;99220.28;;;14.57;67.98
26719;BME280;14326;50.794;6.060;2023-04-21T10:21:15;99225.69;;;14.52;64.90
26719;BME280;14326;50.794;6.060;2023-04-21T10:23:46;99217.66;;;14.52;65.47
26719;BME280;14326;50.794;6.060;2023-04-21T10:26:18;99209.47;;;14.64;65.47
26719;BME280;14326;50.794;6.060;2023-04-21T10:28:47;99208.53;;;14.67;64.21
26719;BME280;14326;50.794;6.060;2023-04-21T10:31:28;99203.97;;;14.73;63.49
26719;BME280;14326;50.794;6.060;2023-04-21T10:34:28;99203.53;;;14.41;63.12
26719;BME280;14326;50.794;6.060;2023-04-21T10:37:12;99191.09;;;14.35;65.26
26719;BME280;14326;50.794;6.060;2023-04-21T10:39:45;99181.72;;;14.71;66.46
26719;BME280;14326;50.794;6.060;2023-04-21T10:42:20;99175.59;;;14.62;62.33
26719;BME280;14326;50.794;6.060;2023-04-21T10:44:59;99175.00;;;14.42;62.68
26719;BME280;14326;50.794;6.060;2023-04-21T10:47:38;99159.31;;;14.77;63.88
26719;BME280;14326;50.794;6.060;2023-04-21T10:50:21;99147.19;;;15.08;63.66
26719;BME280;14326;50.794;6.060;2023-04-21T10:52:53;99153.59;;;15.01;62.77
26719;BME280;14326;50.794;6.060;2023-04-21T10:55:20;99155.50;;;14.92;59.18
26719;BME280;14326;50.794;6.060;2023-04-21T10:58:04;99150.25;;;14.86;61.33
26719;BME280;14326;50.794;6.060;2023-04-21T11:00:33;99146.47;;;14.99;63.51
26719;BME280;14326;50.794;6.060;2023-04-21T11:03:15;99148.47;;;15.38;64.18
26719;BME280;14326;50.794;6.060;2023-04-21T11:06:20;99147.28;;;15.02;58.76
26719;BME280;14326;50.794;6.060;2023-04-21T11:09:04;99137.16;;;15.21;62.82
26719;BME280;14326;50.794;6.060;2023-04-21T11:11:57;99137.50;;;15.53;61.24
26719;BME280;14326;50.794;6.060;2023-04-21T11:14:34;99136.16;;;15.28;59.75
26719;BME280;14326;50.794;6.060;2023-04-21T11:17:31;99134.94;;;14.94;62.89
26719;BME280;14326;50.794;6.060;2023-04-21T11:20:09;99128.97;;;15.30;66.22
26719;BME280;14326;50.794;6.060;2023-04-21T11:22:39;99126.97;;;15.43;65.18
26719;BME280;14326;50.794;6.060;2023-04-21T11:25:27;99124.13;;;15.53;65.04
26719;BME280;14326;50.794;6.060;2023-04-21T11:27:57;99113.50;;;15.46;64.30
26719;BME280;14326;50.794;6.060;2023-04-21T11:30:44;99109.59;;;15.64;65.65
26719;BME280;14326;50.794;6.060;2023-04-21T11:33:21;99099.50;;;15.78;64.15
26719;BME280;14326;50.794;6.060;2023-04-21T11:36:14;99093.31;;;15.73;63.77
26719;BME280;14326;50.794;6.060;2023-04-21T11:39:28;99086.91;;;15.81;64.20
26719;BME280;14326;50.794;6.060;2023-04-21T11:42:19;99076.41;;;15.71;64.31
26719;BME280;14326;50.794;6.060;2023-04-21T11:45:19;99073.22;;;15.95;64.27
26719;BME280;14326;50.794;6.060;2023-04-21T11:48:12;99056.38;;;15.88;63.44
26719;BME280;14326;50.794;6.060;2023-04-21T11:50:59;99053.66;;;15.90;62.38
26719;BME280;14326;50.794;6.060;2023-04-21T11:53:40;99059.88;;;15.90;63.25
26719;BME280;14326;50.794;6.060;2023-04-21T11:56:08;99059.44;;;16.12;63.19
26719;BME280;14326;50.794;6.060;2023-04-21T11:58:35;99065.75;;;16.09;63.07
26719;BME280;14326;50.794;6.060;2023-04-21T12:01:06;99066.81;;;16.41;63.01
26719;BME280;14326;50.794;6.060;2023-04-21T12:03:33;99069.41;;;16.05;60.38
26719;BME280;14326;50.794;6.060;2023-04-21T12:06:00;99072.50;;;15.85;61.61
26719;BME280;14326;50.794;6.060;2023-04-21T12:08:28;99075.78;;;16.01;57.25
26719;BME280;14326;50.794;6.060;2023-04-21T12:10:57;99067.47;;;16.13;56.76
26719;BME280;14326;50.794;6.060;2023-04-21T12:13:27;99065.56;;;16.18;53.80
26719;BME280;14326;50.794;6.060;2023-04-21T12:15:55;99071.75;;;15.79;55.97
26719;BME280;14326;50.794;6.060;2023-04-21T12:18:26;99082.44;;;15.34;58.53
26719;BME280;14326;50.794;6.060;2023-04-21T12:20:54;99079.97;;;15.22;59.16
26719;BME280;14326;50.794;6.060;2023-04-21T12:23:21;99073.59;;;15.31;61.02
26719;BME280;14326;50.794;6.060;2023-04-21T12:25:48;99081.34;;;15.44;59.64
26719;BME280;14326;50.794;6.060;2023-04-21T12:28:17;99080.53;;;15.41;57.10
26719;BME280;14326;50.794;6.060;2023-04-21T12:30:45;99074.31;;;15.85;56.87
26719;BME280;14326;50.794;6.060;2023-04-21T12:33:13;99073.97;;;16.02;55.55
26719;BME280;14326;50.794;6.060;2023-04-21T12:36:25;99071.75;;;16.20;56.02
26719;BME280;14326;50.794;6.060;2023-04-21T12:38:58;99069.28;;;16.11;54.68
26719;BME280;14326;50.794;6.060;2023-04-21T12:41:43;99078.88;;;16.21;53.75
26719;BME280;14326;50.794;6.060;2023-04-21T12:47:35;99062.28;;;16.04;56.04
26719;BME280;14326;50.794;6.060;2023-04-21T12:50:16;99067.31;;;16.19;55.58
26719;BME280;14326;50.794;6.060;2023-04-21T12:52:59;99060.34;;;16.11;54.59
26719;BME280;14326;50.794;6.060;2023-04-21T12:55:26;99052.91;;;16.23;56.24
26719;BME280;14326;50.794;6.060;2023-04-21T12:57:53;99046.72;;;16.60;54.61
26719;BME280;14326;50.794;6.060;2023-04-21T13:00:30;99051.94;;;16.66;53.57
26719;BME280;14326;50.794;6.060;2023-04-21T13:03:27;99047.09;;;16.80;53.54
26719;BME280;14326;50.794;6.060;2023-04-21T13:06:40;99037.38;;;16.74;50.71
26719;BME280;14326;50.794;6.060;2023-04-21T13:12:31;99039.00;;;16.82;50.56
26719;BME280;14326;50.794;6.060;2023-04-21T13:15:12;99028.34;;;16.40;50.92
26719;BME280;14326;50.794;6.060;2023-04-21T13:17:39;99036.50;;;16.37;50.67
26719;BME280;14326;50.794;6.060;2023-04-21T13:20:08;99026.56;;;16.41;50.92
26719;BME280;14326;50.794;6.060;2023-04-21T13:22:35;99027.28;;;16.49;51.96
26719;BME280;14326;50.794;6.060;2023-04-21T13:25:04;99033.28;;;16.60;52.85
26719;BME280;14326;50.794;6.060;2023-04-21T13:27:31;99023.78;;;16.81;50.60
26719;BME280;14326;50.794;6.060;2023-04-21T13:29:58;99010.91;;;16.58;49.42
26719;BME280;14326;50.794;6.060;2023-04-21T13:32:37;99004.41;;;16.68;50.12
26719;BME280;14326;50.794;6.060;2023-04-21T13:35:05;99000.69;;;16.73;49.89
26719;BME280;14326;50.794;6.060;2023-04-21T13:37:45;98996.00;;;16.83;49.35
26719;BME280;14326;50.794;6.060;2023-04-21T13:40:13;98999.66;;;16.79;49.43
26719;BME280;14326;50.794;6.060;2023-04-21T13:42:41;99003.38;;;16.73;50.09
26719;BME280;14326;50.794;6.060;2023-04-21T13:45:23;99002.72;;;16.99;49.60
26719;BME280;14326;50.794;6.060;2023-04-21T13:47:59;98985.75;;;16.97;48.90
26719;BME280;14326;50.794;6.060;2023-04-21T13:50:38;98990.91;;;17.05;47.67
26719;BME280;14326;50.794;6.060;2023-04-21T13:53:27;99003.34;;;17.09;46.90
26719;BME280;14326;50.794;6.060;2023-04-21T13:56:01;98986.59;;;16.99;48.29
26719;BME280;14326;50.794;6.060;2023-04-21T13:59:10;98981.81;;;17.10;48.05
26719;BME280;14326;50.794;6.060;2023-04-21T14:01:54;98971.66;;;16.89;47.47
26719;BME280;14326;50.794;6.060;2023-04-21T14:04:32;98972.41;;;16.94;49.29
26719;BME280;14326;50.794;6.060;2023-04-21T14:07:00;98975.00;;;16.97;47.56
26719;BME280;14326;50.794;6.060;2023-04-21T14:09:34;98966.19;;;16.92;47.96
26719;BME280;14326;50.794;6.060;2023-04-21T14:12:20;98951.75;;;16.96;46.69
26719;BME280;14326;50.794;6.060;2023-04-21T14:14:47;98954.31;;;17.01;47.02
26719;BME280;14326;50.794;6.060;2023-04-21T14:17:13;98943.66;;;17.29;45.89
26719;BME280;14326;50.794;6.060;2023-04-21T14:19:41;98942.53;;;17.37;43.05
26719;BME280;14326;50.794;6.060;2023-04-21T14:22:11;98938.06;;;17.67;46.60
26719;BME280;14326;50.794;6.060;2023-04-21T14:24:58;98934.19;;;18.05;42.84
26719;BME280;14326;50.794;6.060;2023-04-21T14:27:50;98928.75;;;18.07;41.79
26719;BME280;14326;50.794;6.060;2023-04-21T14:30:55;98924.88;;;17.58;41.35
26719;BME280;14326;50.794;6.060;2023-04-21T14:33:22;98920.91;;;17.40;41.75
26719;BME280;14326;50.794;6.060;2023-04-21T14:35:50;98925.59;;;17.34;42.07
26719;BME280;14326;50.794;6.060;2023-04-21T14:38:17;98917.44;;;17.37;41.86
26719;BME280;14326;50.794;6.060;2023-04-21T14:40:45;98926.28;;;17.40;42.30
26719;BME280;14326;50.794;6.060;2023-04-21T14:43:14;98926.25;;;17.42;40.70
26719;BME280;14326;50.794;6.060;2023-04-21T14:45:43;98926.69;;;17.27;40.31
26719;BME280;14326;50.794;6.060;2023-04-21T14:48:09;98923.97;;;17.28;41.76
26719;BME280;14326;50.794;6.060;2023-04-21T14:50:38;98931.72;;;17.08;39.60
26719;BME280;14326;50.794;6.060;2023-04-21T14:53:05;98928.19;;;17.06;40.44
26719;BME280;14326;50.794;6.060;2023-04-21T14:55:32;98911.09;;;17.08;41.44
26719;BME280;14326;50.794;6.060;2023-04-21T14:58:00;98915.53;;;17.09;40.96
26719;BME280;14326;50.794;6.060;2023-04-21T15:00:26;98915.63;;;17.08;40.88